Time;durP1;ratioP1;P1;durP2;ratioP2;P2;SDS_P1;SDS_P2;PMS_P1;PMS_P2;Temp;Humidity;BMP_temperature;BMP_pressure;BME280_temperature;BME280_humidity;BME280_pressure;Samples;Min_cycle;Max_cycle;Signal;HPM_P1;HPM_P2
2021/06/15 00:05:05;;;;;;;6.28;3.87;;;;;;;17.78;87.44;98521.86;3970741;73;44219;-23
2021/06/15 00:10:14;;;;;;;6.35;4.30;;;;;;;17.73;88.54;98514.81;3977193;73;43705;-23
2021/06/15 00:15:21;;;;;;;4.37;3.67;;;;;;;17.64;89.36;98516.05;3968137;73;43113;-24
2021/06/15 00:20:27;;;;;;;5.53;3.83;;;;;;;17.56;89.86;98519.28;3961729;73;44378;-23
2021/06/15 00:25:33;;;;;;;5.62;3.90;;;;;;;17.48;91.21;98516.72;3958515;73;43412;-23
2021/06/15 00:30:39;;;;;;;6.12;4.00;;;;;;;17.35;92.62;98516.16;3959662;73;44000;-23
2021/06/15 00:35:46;;;;;;;7.03;4.20;;;;;;;17.27;93.79;98519.56;3960436;73;43716;-23
2021/06/15 00:40:52;;;;;;;8.05;4.15;;;;;;;17.12;94.42;98525.98;3959703;73;43380;-24
2021/06/15 00:45:58;;;;;;;5.37;3.90;;;;;;;17.02;95.75;98526.87;3961103;73;43721;-24
2021/06/15 00:51:07;;;;;;;4.90;4.20;;;;;;;16.89;99.29;98523.53;3971106;73;44149;-24
2021/06/15 00:56:14;;;;;;;7.03;3.85;;;;;;;16.90;96.25;98524.67;3844204;76;44194;-23
2021/06/15 01:01:20;;;;;;;6.28;4.10;;;;;;;16.87;95.84;98521.52;3880616;76;43310;-23
2021/06/15 01:06:31;;;;;;;6.45;3.83;;;;;;;16.71;97.69;98513.98;3910078;75;43652;-25
2021/06/15 01:16:58;;;;;;;6.20;4.17;;;;;;;16.68;99.50;98508.11;4003071;73;27146;-22
2021/06/15 01:22:09;;;;;;;7.03;4.47;;;;;;;16.56;98.52;98510.02;3931593;73;43666;-23
2021/06/15 01:27:56;;;;;;;7.25;4.62;;;;;;;16.48;99.33;98512.89;3930281;75;26674;-24
2021/06/15 01:33:06;;;;;;;5.22;4.12;;;;;;;16.41;100.00;98518.27;3925585;75;44039;-24
2021/06/15 01:38:15;;;;;;;5.62;4.42;;;;;;;16.37;100.00;98518.33;3917839;73;43443;-24
2021/06/15 01:43:25;;;;;;;5.17;4.35;;;;;;;16.29;100.00;98521.20;3906262;73;45353;-24
2021/06/15 01:48:36;;;;;;;5.87;4.60;;;;;;;16.28;100.00;98522.23;3925128;75;43996;-24
2021/06/15 01:53:47;;;;;;;5.83;4.28;;;;;;;16.20;100.00;98515.58;3930682;73;43337;-22
2021/06/15 01:58:58;;;;;;;7.10;4.78;;;;;;;16.14;100.00;98526.19;3931324;75;26472;-22
2021/06/15 02:04:06;;;;;;;4.42;4.00;;;;;;;16.08;100.00;98517.97;3927025;73;43440;-23
2021/06/15 02:09:14;;;;;;;7.30;5.20;;;;;;;15.99;100.00;98515.92;3910153;73;43687;-22
2021/06/15 02:14:26;;;;;;;6.53;4.75;;;;;;;15.92;100.00;98517.21;3897387;73;26351;-25
2021/06/15 02:19:51;;;;;;;6.67;5.00;;;;;;;15.83;100.00;98516.45;3900331;73;26811;-23
2021/06/15 02:25:00;;;;;;;6.47;5.22;;;;;;;15.77;100.00;98518.57;3897533;74;42925;-23
2021/06/15 02:30:10;;;;;;;6.83;5.03;;;;;;;15.70;100.00;98515.78;3901224;73;27406;-23
2021/06/15 02:35:21;;;;;;;6.90;5.20;;;;;;;15.62;100.00;98526.77;3902898;75;26451;-24
2021/06/15 02:40:30;;;;;;;7.12;5.50;;;;;;;15.59;100.00;98517.64;3899293;74;43548;-24
2021/06/15 02:45:39;;;;;;;7.75;5.85;;;;;;;15.54;100.00;98520.11;3911374;74;43010;-22
2021/06/15 02:50:48;;;;;;;6.35;4.80;;;;;;;15.44;100.00;98520.93;3904033;74;43287;-22
2021/06/15 02:56:00;;;;;;;7.60;5.10;;;;;;;15.39;100.00;98518.25;3904687;74;43991;-22
2021/06/15 03:01:08;;;;;;;7.70;5.65;;;;;;;15.33;100.00;98519.03;3901721;75;26464;-22
2021/06/15 03:06:16;;;;;;;6.35;5.17;;;;;;;15.25;100.00;98521.83;3895941;74;26421;-23
2021/06/15 03:11:25;;;;;;;7.03;5.72;;;;;;;15.17;100.00;98521.94;3908757;74;43674;-23
2021/06/15 03:16:35;;;;;;;6.60;5.62;;;;;;;15.14;100.00;98525.02;3915281;74;26319;-23
2021/06/15 03:21:45;;;;;;;10.00;5.75;;;;;;;15.08;100.00;98525.26;3923499;73;44014;-23
2021/06/15 03:26:58;;;;;;;9.38;6.50;;;;;;;15.04;100.00;98523.45;3918705;73;26676;-23
2021/06/15 03:32:09;;;;;;;6.17;5.50;;;;;;;15.05;100.00;98529.20;3929887;74;43357;-23
2021/06/15 03:42:37;;;;;;;7.72;5.42;;;;;;;15.06;100.00;98526.81;3989896;72;28552;-21
2021/06/15 03:47:43;;;;;;;6.80;4.87;;;;;;;14.99;100.00;98539.46;3911154;74;43656;-23
2021/06/15 03:52:53;;;;;;;9.20;6.17;;;;;;;14.99;100.00;98534.53;3939142;73;43694;-24
2021/06/15 03:58:00;;;;;;;6.72;5.78;;;;;;;14.98;100.00;98540.98;3929355;73;43354;-22
2021/06/15 04:03:10;;;;;;;8.03;6.42;;;;;;;14.98;100.00;98541.84;3927560;73;44063;-22
2021/06/15 04:08:19;;;;;;;11.95;6.62;;;;;;;15.01;100.00;98543.33;3934632;73;43828;-22
2021/06/15 04:13:27;;;;;;;8.58;7.47;;;;;;;14.93;100.00;98538.83;3925927;75;43381;-22
2021/06/15 04:18:35;;;;;;;7.70;6.60;;;;;;;14.92;100.00;98538.50;3930940;75;43444;-22
2021/06/15 04:23:44;;;;;;;7.85;6.90;;;;;;;14.96;100.00;98542.53;3938369;73;43661;-22
2021/06/15 04:28:50;;;;;;;9.83;7.12;;;;;;;14.98;100.00;98546.41;3934063;75;43570;-22
2021/06/15 04:33:59;;;;;;;8.13;6.97;;;;;;;15.09;100.00;98542.73;3915548;73;43139;-22
2021/06/15 04:39:07;;;;;;;7.58;6.05;;;;;;;15.21;100.00;98547.68;3914376;73;43184;-22
2021/06/15 04:44:17;;;;;;;8.78;6.55;;;;;;;15.29;100.00;98542.14;3925121;75;44045;-22
2021/06/15 04:49:26;;;;;;;9.58;7.10;;;;;;;15.40;100.00;98547.09;3932734;75;44154;-22
2021/06/15 04:54:35;;;;;;;8.75;7.25;;;;;;;15.50;100.00;98545.95;3931516;74;43742;-22
2021/06/15 04:59:43;;;;;;;10.13;6.85;;;;;;;15.64;100.00;98557.30;3923445;75;44026;-22
2021/06/15 05:04:51;;;;;;;7.50;6.37;;;;;;;15.75;100.00;98557.33;3931966;73;43974;-22
2021/06/15 05:10:00;;;;;;;9.58;6.60;;;;;;;15.84;100.00;98560.75;3931415;73;43445;-22
2021/06/15 05:15:09;;;;;;;8.93;6.60;;;;;;;15.96;100.00;98559.78;3918889;75;43984;-22
2021/06/15 05:20:20;;;;;;;9.83;6.70;;;;;;;16.08;100.00;98562.81;3920413;75;43843;-22
2021/06/15 05:25:28;;;;;;;8.95;7.03;;;;;;;16.17;100.00;98575.23;3936856;73;44173;-22
2021/06/15 05:30:35;;;;;;;9.18;7.03;;;;;;;16.28;100.00;98569.80;3945079;75;43389;-22
2021/06/15 05:35:42;;;;;;;8.15;7.15;;;;;;;16.35;100.00;98576.14;3918998;75;43805;-22
2021/06/15 05:40:48;;;;;;;8.38;6.97;;;;;;;16.47;100.00;98577.30;3928272;73;43708;-22
2021/06/15 05:45:56;;;;;;;10.10;7.40;;;;;;;16.60;100.00;98583.39;3895431;74;44026;-22
2021/06/15 05:51:03;;;;;;;10.75;6.78;;;;;;;16.75;100.00;98582.46;3899414;75;44102;-22
2021/06/15 05:56:09;;;;;;;9.83;7.60;;;;;;;16.89;100.00;98588.30;3908837;75;43427;-22
2021/06/15 06:01:16;;;;;;;10.18;7.53;;;;;;;17.05;100.00;98593.16;3907475;75;43665;-22
2021/06/15 06:11:47;;;;;;;10.05;7.83;;;;;;;17.32;100.00;98598.78;3907182;75;42839;-22
2021/06/15 06:16:55;;;;;;;9.98;7.58;;;;;;;17.49;100.00;98600.11;3904773;74;43480;-22
2021/06/15 06:22:01;;;;;;;10.28;7.70;;;;;;;17.69;100.00;98606.20;3908865;74;44427;-22
2021/06/15 06:27:08;;;;;;;10.25;8.10;;;;;;;17.84;100.00;98608.77;3905654;75;44015;-22
2021/06/15 06:32:15;;;;;;;10.05;8.08;;;;;;;17.96;100.00;98611.23;3905565;75;44022;-23
2021/06/15 06:37:22;;;;;;;11.40;7.72;;;;;;;18.21;100.00;98611.20;3897595;74;44035;-22
2021/06/15 06:42:29;;;;;;;10.38;8.48;;;;;;;18.38;100.00;98605.70;3896926;75;43529;-23
2021/06/15 06:47:35;;;;;;;12.23;8.05;;;;;;;18.58;100.00;98611.69;3902657;74;44476;-23
2021/06/15 06:52:42;;;;;;;9.00;7.72;;;;;;;18.76;100.00;98609.70;3899939;73;43690;-22
2021/06/15 06:57:51;;;;;;;8.23;6.75;;;;;;;18.93;100.00;98606.87;3894563;75;43863;-22
2021/06/15 07:02:59;;;;;;;7.35;6.37;;;;;;;19.18;100.00;98606.77;3897187;75;43444;-23
2021/06/15 07:08:07;;;;;;;6.50;5.50;;;;;;;19.45;100.00;98608.90;3900476;74;43727;-24
2021/06/15 07:13:14;;;;;;;5.65;4.90;;;;;;;19.73;100.00;98609.64;3892532;75;43529;-22
2021/06/15 07:18:21;;;;;;;5.53;3.95;;;;;;;20.01;98.04;98600.63;3889976;75;43318;-23
2021/06/15 07:23:27;;;;;;;5.50;4.67;;;;;;;20.26;87.53;98604.47;3898038;74;43293;-24
2021/06/15 07:28:33;;;;;;;8.13;4.00;;;;;;;20.48;89.84;98600.86;3912323;74;44400;-23
2021/06/15 07:33:39;;;;;;;6.80;4.53;;;;;;;20.70;88.41;98600.48;3912451;75;42936;-24
2021/06/15 07:38:45;;;;;;;5.92;4.17;;;;;;;20.90;86.60;98598.98;3897797;74;44048;-24
2021/06/15 07:43:53;;;;;;;8.63;4.60;;;;;;;21.08;86.54;98605.04;3893733;75;43460;-23
2021/06/15 07:48:59;;;;;;;6.97;5.10;;;;;;;21.21;86.00;98602.17;3883667;75;44032;-24
2021/06/15 07:54:06;;;;;;;6.12;5.00;;;;;;;21.40;87.21;98603.55;3912378;74;43987;-22
2021/06/15 07:59:12;;;;;;;5.95;4.90;;;;;;;21.50;86.21;98605.77;3890967;74;43342;-23
2021/06/15 08:04:18;;;;;;;7.35;5.05;;;;;;;21.60;86.17;98605.25;3915782;74;45246;-22
2021/06/15 08:09:23;;;;;;;6.53;4.53;;;;;;;21.70;86.77;98609.66;3885419;74;43403;-23
2021/06/15 08:14:29;;;;;;;6.62;5.00;;;;;;;21.91;86.46;98613.84;3906808;75;43758;-22
2021/06/15 08:19:35;;;;;;;8.23;4.83;;;;;;;22.11;86.86;98617.69;3897576;75;43153;-23
2021/06/15 08:24:41;;;;;;;5.58;4.50;;;;;;;22.19;84.44;98611.05;3902694;74;44025;-22
2021/06/15 08:29:47;;;;;;;7.72;4.40;;;;;;;22.27;84.02;98605.77;3895213;75;44075;-24
2021/06/15 08:34:53;;;;;;;6.92;4.92;;;;;;;22.34;83.12;98602.38;3910766;74;43354;-24
2021/06/15 08:40:00;;;;;;;5.67;4.35;;;;;;;22.46;82.66;98600.55;3894236;74;43735;-23
2021/06/15 08:45:10;;;;;;;7.67;5.28;;;;;;;22.60;82.82;98594.30;3910515;74;44371;-24
2021/06/15 08:50:19;;;;;;;7.22;4.70;;;;;;;22.68;81.20;98591.75;3905204;75;44047;-23
2021/06/15 08:55:29;;;;;;;7.78;4.20;;;;;;;22.93;81.48;98590.70;3901468;74;44072;-24
2021/06/15 09:00:36;;;;;;;5.10;4.50;;;;;;;23.28;78.55;98602.82;3909401;75;43690;-24
2021/06/15 09:05:42;;;;;;;5.10;4.60;;;;;;;23.59;76.45;98607.06;3891909;74;44446;-23
2021/06/15 09:10:51;;;;;;;5.10;4.30;;;;;;;23.74;76.15;98609.84;3906864;74;44016;-23
2021/06/15 09:15:57;;;;;;;5.15;3.98;;;;;;;23.61;76.21;98611.78;3899657;74;44158;-23
2021/06/15 09:21:05;;;;;;;6.62;4.30;;;;;;;23.79;75.13;98602.53;3902228;75;44030;-23
2021/06/15 09:26:12;;;;;;;6.90;4.50;;;;;;;24.17;74.79;98600.27;3737417;74;44815;-23
2021/06/15 09:31:19;;;;;;;6.37;4.10;;;;;;;24.18;74.47;98606.63;3723567;78;43876;-24
2021/06/15 09:36:28;;;;;;;5.28;4.10;;;;;;;24.28;74.22;98609.57;3721611;79;43200;-23
2021/06/15 09:41:38;;;;;;;7.60;3.95;;;;;;;24.19;72.48;98609.13;3656335;80;44145;-23
2021/06/15 09:46:46;;;;;;;5.03;3.90;;;;;;;24.33;72.06;98607.45;3718377;78;43290;-23
2021/06/15 09:52:32;;;;;;;7.50;3.83;;;;;;;24.29;71.28;98596.92;3723303;78;44518;-23
2021/06/15 09:57:40;;;;;;;4.00;3.60;;;;;;;24.50;68.55;98604.20;3665936;79;44466;-23
2021/06/15 10:02:54;;;;;;;6.42;3.55;;;;;;;24.66;67.37;98605.83;3670808;80;43277;-23
2021/06/15 10:08:03;;;;;;;6.15;3.65;;;;;;;24.78;65.76;98605.23;3720932;78;44756;-23
2021/06/15 10:18:23;;;;;;;4.30;3.80;;;;;;;24.98;61.00;98589.59;3955482;73;27195;-22
2021/06/15 10:23:30;;;;;;;4.50;3.75;;;;;;;25.10;63.07;98589.50;3926392;74;44796;-24
2021/06/15 10:28:37;;;;;;;4.35;3.37;;;;;;;25.37;61.80;98578.59;3922010;75;43416;-24
2021/06/15 10:38:57;;;;;;;7.28;4.10;;;;;;;25.46;59.10;98574.03;3994032;73;27127;-22
2021/06/15 10:44:04;;;;;;;7.87;4.17;;;;;;;25.61;61.31;98572.86;3915577;75;43651;-24
2021/06/15 10:49:12;;;;;;;6.05;4.33;;;;;;;25.46;61.71;98572.66;3921932;75;43305;-22
2021/06/15 10:54:40;;;;;;;8.45;4.17;;;;;;;25.65;61.19;98565.72;3915951;74;43756;-22
2021/06/15 11:00:03;;;;;;;5.87;4.05;;;;;;;25.81;61.29;98569.50;3928360;75;44445;-23
2021/06/15 11:05:38;;;;;;;7.53;3.85;;;;;;;25.74;61.97;98567.48;3923927;75;43466;-23
2021/06/15 11:10:49;;;;;;;6.05;4.37;;;;;;;25.51;62.07;98559.76;3917342;74;44443;-23
2021/06/15 11:16:01;;;;;;;7.12;4.08;;;;;;;25.58;61.60;98564.27;3921150;74;43351;-23
2021/06/15 11:21:26;;;;;;;6.25;3.85;;;;;;;25.69;60.65;98557.23;3918443;74;43930;-23
2021/06/15 11:26:37;;;;;;;4.87;4.30;;;;;;;26.14;60.76;98563.56;3927004;74;43239;-23
2021/06/15 11:31:44;;;;;;;4.60;4.20;;;;;;;26.32;58.99;98560.13;3921787;74;44059;-23
2021/06/15 11:36:56;;;;;;;5.50;3.85;;;;;;;26.18;59.18;98569.92;3926240;74;44102;-23
2021/06/15 11:47:46;;;;;;;5.87;3.72;;;;;;;26.42;54.66;98568.52;4007374;72;27189;-22
2021/06/15 11:58:18;;;;;;;4.83;3.65;;;;;;;26.32;51.33;98560.70;3947085;72;27278;-23
2021/06/15 12:03:29;;;;;;;5.30;4.00;;;;;;;26.52;53.74;98563.64;3901272;74;44079;-23
2021/06/15 12:08:37;;;;;;;6.65;4.60;;;;;;;26.81;55.27;98561.98;3901113;74;43609;-23
2021/06/15 12:13:44;;;;;;;8.23;6.50;;;;;;;27.01;60.39;98559.08;3894559;75;43587;-23
2021/06/15 12:18:53;;;;;;;10.38;6.05;;;;;;;27.01;60.39;98559.08;3898021;75;44060;-23
2021/06/15 12:24:03;;;;;;;6.62;5.72;;;;;;;27.22;59.11;98565.02;3907421;75;43361;-23
2021/06/15 12:29:13;;;;;;;7.80;5.25;;;;;;;27.14;60.25;98559.15;3825927;76;44053;-23
2021/06/15 12:34:20;;;;;;;9.23;5.90;;;;;;;27.50;57.91;98560.23;3900557;74;43376;-23
2021/06/15 12:39:30;;;;;;;7.65;5.78;;;;;;;27.58;59.38;98555.27;3899876;74;43623;-23
2021/06/15 12:44:39;;;;;;;8.23;6.75;;;;;;;27.53;59.53;98554.70;3897871;75;44037;-23
2021/06/15 12:49:51;;;;;;;10.35;6.33;;;;;;;27.30;59.09;98555.38;3892882;75;44411;-23
2021/06/15 12:55:09;;;;;;;8.30;6.08;;;;;;;27.64;57.99;98544.48;3893097;74;43279;-23
2021/06/15 13:00:17;;;;;;;8.48;6.55;;;;;;;27.37;59.20;98550.43;3875265;76;44530;-23
2021/06/15 13:05:25;;;;;;;8.18;6.30;;;;;;;27.52;56.76;98541.96;3872037;76;43526;-23
2021/06/15 13:10:30;;;;;;;8.18;6.22;;;;;;;27.31;57.59;98543.22;3872156;75;43685;-23
2021/06/15 13:15:37;;;;;;;10.08;6.87;;;;;;;27.44;56.48;98546.61;3879859;75;44011;-23
2021/06/15 13:20:45;;;;;;;10.82;6.97;;;;;;;27.05;55.27;98542.22;3876317;76;44110;-24
2021/06/15 13:25:52;;;;;;;8.35;6.33;;;;;;;26.59;58.79;98544.08;3866563;75;44072;-24
2021/06/15 13:30:59;;;;;;;10.48;6.40;;;;;;;27.26;55.31;98542.36;3872085;76;43102;-23
2021/06/15 13:36:07;;;;;;;8.53;6.92;;;;;;;27.09;55.13;98553.59;3867739;76;42965;-23
2021/06/15 13:41:14;;;;;;;8.93;6.30;;;;;;;27.09;55.13;98553.59;3850159;75;43876;-23
2021/06/15 13:46:24;;;;;;;7.15;5.95;;;;;;;27.64;53.61;98538.41;3840495;75;43976;-23
2021/06/15 13:51:33;;;;;;;7.97;6.30;;;;;;;27.64;53.61;98538.41;3856363;76;43998;-24
2021/06/15 13:56:45;;;;;;;10.90;6.28;;;;;;;27.90;53.83;98546.81;3876528;75;43681;-24
2021/06/15 14:01:51;;;;;;;8.50;6.15;;;;;;;27.97;54.40;98545.17;3903652;75;43670;-24
2021/06/15 14:06:58;;;;;;;11.28;6.10;;;;;;;28.25;52.14;98527.78;3899279;74;43397;-23
2021/06/15 14:12:07;;;;;;;7.58;5.97;;;;;;;28.62;52.04;98532.81;3913426;75;43677;-24
2021/06/15 14:17:16;;;;;;;8.88;5.47;;;;;;;29.26;50.12;98533.27;3904973;74;44046;-22
2021/06/15 14:22:24;;;;;;;8.55;5.67;;;;;;;29.18;49.00;98530.52;3910448;74;43378;-22
2021/06/15 14:27:31;;;;;;;7.62;5.22;;;;;;;29.18;48.67;98528.59;3898302;75;43496;-22
2021/06/15 14:32:39;;;;;;;7.40;5.40;;;;;;;29.60;47.80;98520.13;3907125;75;43705;-21
2021/06/15 14:37:48;;;;;;;10.45;5.60;;;;;;;29.70;47.21;98528.41;3897648;75;43466;-21
2021/06/15 14:42:54;;;;;;;7.03;4.85;;;;;;;29.97;46.46;98525.27;3913017;75;43742;-22
2021/06/15 14:48:01;;;;;;;6.85;4.90;;;;;;;30.05;45.51;98524.38;3900209;75;43731;-22
2021/06/15 14:53:08;;;;;;;6.75;5.35;;;;;;;30.10;45.45;98519.61;3906032;74;43980;-21
2021/06/15 14:58:15;;;;;;;5.70;5.15;;;;;;;30.10;45.45;98519.61;3880620;74;43434;-22
2021/06/15 15:08:38;;;;;;;6.42;5.30;;;;;;;30.30;44.84;98506.69;4182284;69;33809;-21
2021/06/15 15:13:44;;;;;;;7.30;5.17;;;;;;;30.51;43.56;98517.09;4088005;71;44020;-21
2021/06/15 15:18:52;;;;;;;8.48;5.58;;;;;;;30.51;43.56;98517.09;4004381;73;43709;-21
2021/06/15 15:23:59;;;;;;;9.23;5.80;;;;;;;30.41;43.73;98509.66;4079676;70;44513;-22
2021/06/15 15:29:06;;;;;;;7.95;5.62;;;;;;;29.89;44.45;98509.72;4084366;70;44010;-21
2021/06/15 15:34:12;;;;;;;8.08;5.70;;;;;;;30.33;42.89;98512.25;4070237;70;43400;-21
2021/06/15 15:39:18;;;;;;;9.13;7.37;;;;;;;29.77;44.60;98515.06;4081366;71;44051;-21
2021/06/15 15:44:25;;;;;;;13.48;6.97;;;;;;;28.58;48.72;98509.80;4080119;71;44077;-21
2021/06/15 15:49:31;;;;;;;9.48;6.45;;;;;;;28.65;47.96;98507.28;4079978;71;44042;-21
2021/06/15 15:54:38;;;;;;;7.85;6.40;;;;;;;28.72;48.07;98506.50;4088860;71;43332;-22
2021/06/15 15:59:44;;;;;;;9.55;7.35;;;;;;;28.32;48.45;98502.05;4087121;70;43654;-21
2021/06/15 16:04:50;;;;;;;10.65;7.00;;;;;;;28.32;48.45;98502.05;4089303;70;43293;-21
2021/06/15 16:09:56;;;;;;;9.08;6.78;;;;;;;28.90;47.05;98502.31;4091895;70;43750;-22
2021/06/15 16:15:03;;;;;;;8.73;7.00;;;;;;;28.32;47.48;98521.98;4011485;72;44459;-22
2021/06/15 16:20:11;;;;;;;8.38;6.50;;;;;;;28.12;48.86;98509.20;4085189;71;44033;-22
2021/06/15 16:25:18;;;;;;;7.72;6.10;;;;;;;28.07;49.31;98505.03;4087776;71;44505;-21
2021/06/15 16:30:26;;;;;;;9.33;7.08;;;;;;;28.29;48.65;98490.94;4098047;70;43161;-23
2021/06/15 16:35:33;;;;;;;12.78;7.20;;;;;;;28.29;48.65;98490.94;4081500;70;43666;-23
2021/06/15 16:40:39;;;;;;;8.98;7.97;;;;;;;27.04;53.75;98512.36;3996944;72;43729;-23
2021/06/15 16:45:45;;;;;;;10.05;7.80;;;;;;;27.04;53.75;98512.36;4080603;71;42980;-23
2021/06/15 16:50:51;;;;;;;12.68;8.75;;;;;;;27.45;53.48;98510.95;4081333;71;43682;-23
2021/06/15 16:55:57;;;;;;;10.65;8.75;;;;;;;26.92;55.27;98510.35;4085471;71;44185;-24
2021/06/15 17:01:04;;;;;;;13.15;8.40;;;;;;;26.85;55.32;98509.77;3947991;73;43726;-23
2021/06/15 17:06:10;;;;;;;12.40;8.13;;;;;;;27.10;54.92;98508.27;4083111;71;44102;-24
2021/06/15 17:11:20;;;;;;;9.35;7.47;;;;;;;27.22;54.44;98518.00;4086277;70;43520;-23
2021/06/15 17:16:25;;;;;;;10.48;8.48;;;;;;;27.27;55.10;98508.07;4081306;70;43385;-24
2021/06/15 17:21:32;;;;;;;12.82;8.90;;;;;;;26.95;56.33;98509.83;4023404;72;43285;-23
2021/06/15 17:26:38;;;;;;;23.92;8.63;;;;;;;26.61;58.13;98511.50;4073573;71;43721;-23
2021/06/15 17:31:45;;;;;;;9.65;7.75;;;;;;;26.11;60.83;98512.15;4017874;72;43415;-23
2021/06/15 17:36:51;;;;;;;11.78;8.85;;;;;;;25.98;61.17;98509.24;4098638;70;43980;-24
2021/06/15 17:41:57;;;;;;;9.53;8.35;;;;;;;25.77;61.73;98515.08;4086327;70;42724;-23
2021/06/15 17:47:04;;;;;;;12.60;9.10;;;;;;;25.28;64.13;98507.05;4088704;70;43385;-23
2021/06/15 17:52:10;;;;;;;10.90;9.53;;;;;;;24.95;65.92;98506.02;4093680;70;43434;-24
2021/06/15 17:57:16;;;;;;;11.38;9.55;;;;;;;24.69;67.99;98511.70;4076994;70;44050;-23
2021/06/15 18:02:25;;;;;;;13.13;10.68;;;;;;;24.35;69.32;98513.05;4089896;70;44700;-23
2021/06/15 18:07:36;;;;;;;11.93;10.50;;;;;;;23.96;71.95;98515.95;4090957;71;44069;-24
2021/06/15 18:12:39;;;;;;;12.37;10.43;;;;;;;23.98;72.54;98526.17;4079241;70;43796;-23
2021/06/15 18:17:46;;;;;;;12.23;10.48;;;;;;;23.73;74.56;98525.65;4070288;70;44046;-23
2021/06/15 18:22:52;;;;;;;12.82;10.35;;;;;;;23.63;75.00;98522.17;4090029;70;43311;-24
2021/06/15 18:28:01;;;;;;;13.13;11.10;;;;;;;23.52;76.43;98523.88;4079614;70;43683;-23
2021/06/15 18:33:07;;;;;;;15.28;11.68;;;;;;;23.27;77.05;98523.63;4086281;71;43443;-23
2021/06/15 18:38:14;;;;;;;13.53;12.13;;;;;;;23.17;78.85;98523.37;4086385;70;44055;-22
2021/06/15 18:43:20;;;;;;;12.70;11.08;;;;;;;23.11;79.84;98515.56;4089188;70;43468;-24
2021/06/15 18:48:25;;;;;;;15.30;12.03;;;;;;;22.90;81.49;98523.88;4088418;71;43753;-24
2021/06/15 18:53:32;;;;;;;14.73;11.85;;;;;;;22.62;83.20;98524.88;4085273;70;43419;-24
2021/06/15 18:58:40;;;;;;;13.80;11.95;;;;;;;22.49;83.46;98529.77;4099025;71;44048;-24
2021/06/15 19:03:46;;;;;;;15.45;12.50;;;;;;;22.30;86.79;98522.95;4080412;70;43370;-24
2021/06/15 19:08:52;;;;;;;15.30;12.13;;;;;;;21.96;89.95;98528.11;4095924;71;43720;-24
2021/06/15 19:13:59;;;;;;;14.35;12.50;;;;;;;21.78;91.00;98519.39;4104336;70;43673;-24
2021/06/15 19:19:05;;;;;;;13.48;12.18;;;;;;;21.39;96.41;98522.39;4093363;71;42975;-24
2021/06/15 19:24:12;;;;;;;13.88;12.23;;;;;;;21.08;99.40;98525.59;4091254;70;43235;-24
2021/06/15 19:29:19;;;;;;;13.32;11.88;;;;;;;20.87;100.00;98544.14;4104216;70;43401;-24
2021/06/15 19:34:25;;;;;;;16.25;12.53;;;;;;;20.67;100.00;98542.06;4088288;71;44080;-24
2021/06/15 19:39:33;;;;;;;14.20;12.70;;;;;;;20.43;100.00;98534.48;4092409;70;43678;-23
2021/06/15 19:44:39;;;;;;;14.75;12.28;;;;;;;20.37;100.00;98546.84;4075894;71;43472;-24
2021/06/15 19:49:45;;;;;;;15.08;11.73;;;;;;;20.30;100.00;98553.19;4082329;70;42747;-24
2021/06/15 19:54:52;;;;;;;16.00;12.88;;;;;;;20.15;100.00;98560.89;4103926;71;43712;-24
2021/06/15 19:59:58;;;;;;;14.30;12.45;;;;;;;20.07;100.00;98559.77;4088257;70;44107;-24
2021/06/15 20:05:06;;;;;;;17.48;13.00;;;;;;;19.95;100.00;98564.56;4080093;71;44018;-24
2021/06/15 20:10:13;;;;;;;15.72;12.43;;;;;;;19.94;100.00;98568.89;4093271;70;44066;-24
2021/06/15 20:15:20;;;;;;;16.57;12.70;;;;;;;19.79;100.00;98571.89;4064420;70;43434;-24
2021/06/15 20:20:26;;;;;;;15.53;13.88;;;;;;;19.97;100.00;98575.30;4085392;71;44117;-24
2021/06/15 20:25:33;;;;;;;17.32;14.28;;;;;;;19.89;100.00;98576.39;4082886;71;43680;-24
2021/06/15 20:30:40;;;;;;;16.42;13.83;;;;;;;19.85;100.00;98565.53;4072951;71;42951;-24
2021/06/15 20:35:46;;;;;;;16.57;14.85;;;;;;;19.75;100.00;98583.80;4088236;71;43714;-24
2021/06/15 20:40:52;;;;;;;16.45;14.55;;;;;;;19.69;100.00;98581.41;4072884;70;44071;-28
2021/06/15 20:45:59;;;;;;;17.15;13.98;;;;;;;19.65;100.00;98587.48;4094335;70;43475;-24
2021/06/15 20:51:06;;;;;;;15.43;13.68;;;;;;;19.79;100.00;98591.85;4090223;70;44446;-24
2021/06/15 20:56:11;;;;;;;18.80;14.33;;;;;;;19.78;100.00;98594.81;4111382;70;44461;-24
2021/06/15 21:01:18;;;;;;;14.83;12.98;;;;;;;19.68;100.00;98593.90;4097906;70;43252;-24
2021/06/15 21:06:24;;;;;;;17.42;13.10;;;;;;;19.67;100.00;98595.80;4092160;71;43454;-24
2021/06/15 21:11:30;;;;;;;13.75;12.35;;;;;;;19.72;100.00;98589.69;4095062;70;44104;-23
2021/06/15 21:16:37;;;;;;;17.98;13.68;;;;;;;19.74;100.00;98594.92;4071215;71;43726;-24
2021/06/15 21:21:42;;;;;;;15.10;13.53;;;;;;;19.70;100.00;98592.62;4091362;70;44121;-24
2021/06/15 21:26:49;;;;;;;16.00;14.30;;;;;;;19.64;100.00;98586.66;4085626;70;43310;-24
2021/06/15 21:31:55;;;;;;;18.25;14.45;;;;;;;19.51;100.00;98583.98;4097189;71;44048;-24
2021/06/15 21:37:01;;;;;;;15.75;14.15;;;;;;;19.40;100.00;98583.59;4011524;72;43344;-24
2021/06/15 21:42:08;;;;;;;19.55;15.58;;;;;;;19.38;100.00;98591.70;4088729;71;44035;-24
2021/06/15 21:47:14;;;;;;;15.88;14.20;;;;;;;19.21;100.00;98588.59;4106535;71;43371;-24
2021/06/15 21:52:20;;;;;;;16.87;15.08;;;;;;;19.13;100.00;98591.52;4097958;70;43411;-24
2021/06/15 21:57:26;;;;;;;17.20;15.20;;;;;;;19.04;100.00;98591.76;4083961;70;44534;-24
2021/06/15 22:02:32;;;;;;;17.25;13.62;;;;;;;18.96;100.00;98585.16;4005681;72;43644;-24
2021/06/15 22:07:39;;;;;;;16.95;15.15;;;;;;;18.96;100.00;98591.13;4012554;72;44027;-24
2021/06/15 22:12:46;;;;;;;17.62;15.80;;;;;;;18.83;100.00;98586.50;4103353;70;44148;-24
2021/06/15 22:17:53;;;;;;;16.90;15.10;;;;;;;18.71;100.00;98586.28;4084192;71;42854;-24
2021/06/15 22:22:59;;;;;;;18.10;15.45;;;;;;;18.59;100.00;98582.81;4081360;71;43018;-24
2021/06/15 22:28:07;;;;;;;15.05;13.50;;;;;;;18.58;100.00;98580.31;4099255;70;44038;-24
2021/06/15 22:33:14;;;;;;;18.02;14.60;;;;;;;18.53;100.00;98579.58;4087111;70;43405;-24
2021/06/15 22:38:20;;;;;;;16.27;14.33;;;;;;;18.45;100.00;98575.16;4092081;70;44028;-24
2021/06/15 22:43:25;;;;;;;15.80;14.00;;;;;;;18.34;100.00;98577.14;4090770;70;43763;-24
2021/06/15 22:48:32;;;;;;;18.07;15.78;;;;;;;18.31;100.00;98562.55;4067292;71;43048;-24
2021/06/15 22:53:37;;;;;;;17.60;15.08;;;;;;;18.27;100.00;98567.59;4070007;71;43405;-25
2021/06/15 22:58:44;;;;;;;17.70;13.68;;;;;;;18.17;100.00;98571.25;4098671;70;44024;-25
2021/06/15 23:03:50;;;;;;;16.32;14.13;;;;;;;18.15;100.00;98566.02;4085658;70;43744;-25
2021/06/15 23:08:56;;;;;;;15.90;14.03;;;;;;;18.06;100.00;98559.59;4084498;70;43302;-24
2021/06/15 23:14:02;;;;;;;16.75;13.50;;;;;;;18.00;100.00;98566.70;4090820;70;44008;-24
2021/06/15 23:19:08;;;;;;;18.70;15.48;;;;;;;17.98;100.00;98559.25;4095891;71;43987;-24
2021/06/15 23:24:14;;;;;;;18.12;15.93;;;;;;;17.84;100.00;98559.17;4092088;70;44480;-25
2021/06/15 23:29:20;;;;;;;15.32;13.72;;;;;;;17.81;100.00;98556.03;4074283;70;44046;-24
2021/06/15 23:34:27;;;;;;;21.00;16.35;;;;;;;17.81;100.00;98549.22;4083520;71;44039;-24
2021/06/15 23:39:33;;;;;;;17.75;15.88;;;;;;;17.79;100.00;98552.16;4086865;70;44062;-24
2021/06/15 23:44:39;;;;;;;18.15;15.60;;;;;;;17.68;100.00;98547.30;4071212;71;44038;-24
2021/06/15 23:49:45;;;;;;;19.25;16.00;;;;;;;17.52;100.00;98552.05;4102011;71;42909;-24
2021/06/15 23:54:51;;;;;;;19.57;17.25;;;;;;;17.52;100.00;98557.50;4097657;71;44779;-24
2021/06/15 23:59:57;;;;;;;21.40;16.23;;;;;;;17.47;100.00;98554.53;4101508;71;44449;-24
